Ever Decent — 9V7952 — position and weather

sailwx.info

Track history (hours):
 
Tides and Currents Weather Stations Pressure Air Temp Water Temp Dewpoint Dewpoint Depression Visibility Wind Speed Wind Dir Waves Ship Positions

Ever Decent

Last reported at 2015-Mar-03 18:00 UTC. Time now 2015-Mar-04 11:22 UTC.
Position N 11°18' W 078°54'.

Length 294 m; draft 12 m.

Type: Cargo ship. MMSI: 564904000.

Wind from 040 at 21 knots

Waves 2.5 meters (8 feet), 4 second period

Barometer 1014.0 mb
Air temperature 30.4 ° C
Visibility: greater than 10.8 NM
Dewpoint 28.7 ° C
Water temperature 29.0 ° C

Date/timePositionNaut miles runAvg speedWind from/ knotsBaromVisibWave heightAir tempDewpointWater temp
2015-Mar-03 18:00N 11°18' W 078°54'4816.0 040 / 211014.010.8 2.530.428.729.0
2015-Mar-03 15:00N 12°00' W 078°30'35717.0 060 / 241016.0 5.4 3.028.026.7
2015-Mar-02 18:00N 17°12' W 075°30'5317.7 080 / 231020.0 5.4 2.030.027.428.0
2015-Mar-02 15:00N 18°00' W 075°06'40316.8 120 / 51021.010.8 0.527.725.530.0
2015-Mar-01 15:00N 24°30' W 073°18'89117.8 080 / 271027.010.8 3.025.324.928.0
2015-Feb-27 13:04N 39°21' W 073°51'1117.9
2015-Feb-27 12:28N 39°31' W 073°51'1717.9
2015-Feb-27 11:31N 39°48' W 073°51'1717.0
2015-Feb-27 10:32N 40°05' W 073°50'1410.3
2015-Feb-27 09:09N 40°19' W 073°49'6 9.4
2015-Feb-27 08:30N 40°25' W 073°49'8 9.0
2015-Feb-27 07:33N 40°30' W 073°58'1010.4
2015-Feb-27 06:33N 40°39' W 074°06'2 2.3
2015-Feb-27 05:33N 40°40' W 074°08'1 0.7
2015-Feb-27 04:25N 40°41' W 074°09'0 0.0
2015-Feb-27 03:19N 40°41' W 074°09'0 0.0
2015-Feb-27 02:33N 40°41' W 074°09'0 0.0
2015-Feb-27 01:17N 40°41' W 074°09'0 0.0
2015-Feb-27 00:34N 40°41' W 074°09'0 0.0
2015-Feb-26 23:32N 40°41' W 074°09'0 0.0
2015-Feb-26 22:33N 40°41' W 074°09'0 0.0
2015-Feb-26 21:33N 40°41' W 074°09'0 0.0
2015-Feb-26 20:32N 40°41' W 074°09'0 0.0
2015-Feb-26 19:31N 40°41' W 074°09'0 0.0
2015-Feb-26 18:28N 40°41' W 074°09'0 0.0
2015-Feb-26 17:32N 40°41' W 074°09'0 0.0
2015-Feb-26 16:33N 40°41' W 074°09'0 0.0
2015-Feb-26 15:28N 40°41' W 074°09'0 0.0
2015-Feb-26 14:27N 40°41' W 074°09'0 0.0
2015-Feb-26 13:32N 40°41' W 074°09'1 0.9
2015-Feb-26 12:28N 40°40' W 074°08'3 3.0
2015-Feb-26 11:33N 40°39' W 074°05'6 6.3
2015-Feb-26 10:33N 40°33' W 074°02'8 7.2
2015-Feb-26 09:27N 40°29' W 073°53'7 7.4
2015-Feb-26 08:28N 40°23' W 073°47'8 7.2
2015-Feb-26 07:22N 40°15' W 073°45'7 6.8
2015-Feb-26 06:23N 40°09' W 073°44'6 5.9
2015-Feb-26 05:26N 40°03' W 073°43'7 6.1
2015-Feb-26 04:21N 39°56' W 073°43'1113.8
2015-Feb-26 03:33N 39°45' W 073°43'1613.9
2015-Feb-26 02:22N 39°29' W 073°44'101 5.3
2015-Feb-25 07:25N 37°58' W 074°39'74 2.1
2015-Feb-23 19:33N 38°00' W 076°12'4120.3
2015-Feb-23 17:31N 38°40' W 076°25'1717.9
2015-Feb-23 16:33N 38°57' W 076°23'1212.1
2015-Feb-23 15:33N 39°09' W 076°25'9 8.7
2015-Feb-23 14:33N 39°15' W 076°34'1 0.7
2015-Feb-23 13:32N 39°15' W 076°33'0 0.0
2015-Feb-23 12:32N 39°15' W 076°33'0 0.0
2015-Feb-23 11:32N 39°15' W 076°33'0 0.0
2015-Feb-23 10:33N 39°15' W 076°33'0 0.0
2015-Feb-23 09:33N 39°15' W 076°33'0 0.0
2015-Feb-23 08:33N 39°15' W 076°33'0 0.0
2015-Feb-23 07:33N 39°15' W 076°33'0 0.0
2015-Feb-23 06:33N 39°15' W 076°33'0 0.0
2015-Feb-23 05:33N 39°15' W 076°33'0 0.0
2015-Feb-23 04:33N 39°15' W 076°33'0 0.0
2015-Feb-23 03:33N 39°15' W 076°33'0 0.0
2015-Feb-23 02:33N 39°15' W 076°33'0 0.0
2015-Feb-23 01:33N 39°15' W 076°33'0 0.0
2015-Feb-23 00:33N 39°15' W 076°33'0 0.0
2015-Feb-22 23:33N 39°15' W 076°33'0 0.0
2015-Feb-22 22:33N 39°15' W 076°33'0 0.0
2015-Feb-22 21:33N 39°15' W 076°33'0 0.0
2015-Feb-22 20:33N 39°15' W 076°33'0 0.0
2015-Feb-22 19:33N 39°15' W 076°33'0 0.0
2015-Feb-22 18:33N 39°15' W 076°33'0 0.0
2015-Feb-22 17:33N 39°15' W 076°33'0 0.0
2015-Feb-22 16:33N 39°15' W 076°33'0 0.0
2015-Feb-22 15:33N 39°15' W 076°33'0 0.0
2015-Feb-22 14:33N 39°15' W 076°33'0 0.0
2015-Feb-22 13:33N 39°15' W 076°33'0 0.0
2015-Feb-22 12:33N 39°15' W 076°33'5 4.8
2015-Feb-22 11:33N 39°12' W 076°29'8 7.6
2015-Feb-22 10:33N 39°05' W 076°24'1413.1
2015-Feb-22 09:29N 38°51' W 076°24'3716.9
2015-Feb-22 07:17N 38°15' W 076°16'1317.1
2015-Feb-22 06:32N 38°02' W 076°13'  
Track history (hours):
 
Tides and Currents Weather Stations Pressure Air Temp Water Temp Dewpoint Dewpoint Depression Visibility Wind Speed Wind Dir Waves Ship Positions

Ever Decent

Last reported at 2015-Mar-03 18:00 UTC. Time now 2015-Mar-04 11:22 UTC.
Position N 11°18' W 078°54'.

Length 294 m; draft 12 m.

Type: Cargo ship. MMSI: 564904000.

Wind from 040 at 21 knots

Waves 2.5 meters (8 feet), 4 second period

Barometer 1014.0 mb
Air temperature 30.4 ° C
Visibility: greater than 10.8 NM
Dewpoint 28.7 ° C
Water temperature 29.0 ° C

Date/timePositionNaut miles runAvg speedWind from/ knotsBaromVisibWave heightAir tempDewpointWater temp
2015-Mar-03 18:00N 11°18' W 078°54'4816.0 040 / 211014.010.8 2.530.428.729.0
2015-Mar-03 15:00N 12°00' W 078°30'35717.0 060 / 241016.0 5.4 3.028.026.7
2015-Mar-02 18:00N 17°12' W 075°30'5317.7 080 / 231020.0 5.4 2.030.027.428.0
2015-Mar-02 15:00N 18°00' W 075°06'40316.8 120 / 51021.010.8 0.527.725.530.0
2015-Mar-01 15:00N 24°30' W 073°18'89117.8 080 / 271027.010.8 3.025.324.928.0
2015-Feb-27 13:04N 39°21' W 073°51'1117.9
2015-Feb-27 12:28N 39°31' W 073°51'1717.9
2015-Feb-27 11:31N 39°48' W 073°51'1717.0
2015-Feb-27 10:32N 40°05' W 073°50'1410.3
2015-Feb-27 09:09N 40°19' W 073°49'6 9.4
2015-Feb-27 08:30N 40°25' W 073°49'8 9.0
2015-Feb-27 07:33N 40°30' W 073°58'1010.4
2015-Feb-27 06:33N 40°39' W 074°06'2 2.3
2015-Feb-27 05:33N 40°40' W 074°08'1 0.7
2015-Feb-27 04:25N 40°41' W 074°09'0 0.0
2015-Feb-27 03:19N 40°41' W 074°09'0 0.0
2015-Feb-27 02:33N 40°41' W 074°09'0 0.0
2015-Feb-27 01:17N 40°41' W 074°09'0 0.0
2015-Feb-27 00:34N 40°41' W 074°09'0 0.0
2015-Feb-26 23:32N 40°41' W 074°09'0 0.0
2015-Feb-26 22:33N 40°41' W 074°09'0 0.0
2015-Feb-26 21:33N 40°41' W 074°09'0 0.0
2015-Feb-26 20:32N 40°41' W 074°09'0 0.0
2015-Feb-26 19:31N 40°41' W 074°09'0 0.0
2015-Feb-26 18:28N 40°41' W 074°09'0 0.0
2015-Feb-26 17:32N 40°41' W 074°09'0 0.0
2015-Feb-26 16:33N 40°41' W 074°09'0 0.0
2015-Feb-26 15:28N 40°41' W 074°09'0 0.0
2015-Feb-26 14:27N 40°41' W 074°09'0 0.0
2015-Feb-26 13:32N 40°41' W 074°09'1 0.9
2015-Feb-26 12:28N 40°40' W 074°08'3 3.0
2015-Feb-26 11:33N 40°39' W 074°05'6 6.3
2015-Feb-26 10:33N 40°33' W 074°02'8 7.2
2015-Feb-26 09:27N 40°29' W 073°53'7 7.4
2015-Feb-26 08:28N 40°23' W 073°47'8 7.2
2015-Feb-26 07:22N 40°15' W 073°45'7 6.8
2015-Feb-26 06:23N 40°09' W 073°44'6 5.9
2015-Feb-26 05:26N 40°03' W 073°43'7 6.1
2015-Feb-26 04:21N 39°56' W 073°43'1113.8
2015-Feb-26 03:33N 39°45' W 073°43'1613.9
2015-Feb-26 02:22N 39°29' W 073°44'101 5.3
2015-Feb-25 07:25N 37°58' W 074°39'74 2.1
2015-Feb-23 19:33N 38°00' W 076°12'4120.3
2015-Feb-23 17:31N 38°40' W 076°25'1717.9
2015-Feb-23 16:33N 38°57' W 076°23'1212.1
2015-Feb-23 15:33N 39°09' W 076°25'9 8.7
2015-Feb-23 14:33N 39°15' W 076°34'1 0.7
2015-Feb-23 13:32N 39°15' W 076°33'0 0.0
2015-Feb-23 12:32N 39°15' W 076°33'0 0.0
2015-Feb-23 11:32N 39°15' W 076°33'0 0.0
2015-Feb-23 10:33N 39°15' W 076°33'0 0.0
2015-Feb-23 09:33N 39°15' W 076°33'0 0.0
2015-Feb-23 08:33N 39°15' W 076°33'0 0.0
2015-Feb-23 07:33N 39°15' W 076°33'0 0.0
2015-Feb-23 06:33N 39°15' W 076°33'0 0.0
2015-Feb-23 05:33N 39°15' W 076°33'0 0.0
2015-Feb-23 04:33N 39°15' W 076°33'0 0.0
2015-Feb-23 03:33N 39°15' W 076°33'0 0.0
2015-Feb-23 02:33N 39°15' W 076°33'0 0.0
2015-Feb-23 01:33N 39°15' W 076°33'0 0.0
2015-Feb-23 00:33N 39°15' W 076°33'0 0.0
2015-Feb-22 23:33N 39°15' W 076°33'0 0.0
2015-Feb-22 22:33N 39°15' W 076°33'0 0.0
2015-Feb-22 21:33N 39°15' W 076°33'0 0.0
2015-Feb-22 20:33N 39°15' W 076°33'0 0.0
2015-Feb-22 19:33N 39°15' W 076°33'0 0.0
2015-Feb-22 18:33N 39°15' W 076°33'0 0.0
2015-Feb-22 17:33N 39°15' W 076°33'0 0.0
2015-Feb-22 16:33N 39°15' W 076°33'0 0.0
2015-Feb-22 15:33N 39°15' W 076°33'0 0.0
2015-Feb-22 14:33N 39°15' W 076°33'0 0.0
2015-Feb-22 13:33N 39°15' W 076°33'0 0.0
2015-Feb-22 12:33N 39°15' W 076°33'5 4.8
2015-Feb-22 11:33N 39°12' W 076°29'8 7.6
2015-Feb-22 10:33N 39°05' W 076°24'1413.1
2015-Feb-22 09:29N 38°51' W 076°24'3716.9
2015-Feb-22 07:17N 38°15' W 076°16'1317.1
2015-Feb-22 06:32N 38°02' W 076°13'  

Dump ship's entire track history